createdAt,value
2023-04-13T00:00:36.915Z,99272.28
2023-04-13T00:05:40.123Z,99283.78
2023-04-13T00:10:43.018Z,99275.75
2023-04-13T00:15:45.633Z,99292.34
2023-04-13T00:20:48.311Z,99287.44
2023-04-13T00:25:51.388Z,99307.16
2023-04-13T00:30:55.063Z,99290.22
2023-04-13T00:35:57.683Z,99313.38
2023-04-13T00:41:04.244Z,99300.63
2023-04-13T00:46:09.122Z,99311.84
2023-04-13T00:51:13.702Z,99288.69
2023-04-13T00:56:16.604Z,99297.31
2023-04-13T01:01:19.930Z,99304.28
2023-04-13T01:06:45.191Z,99280.38
2023-04-13T01:12:17.937Z,99300.16
2023-04-13T01:23:00.518Z,99312.22
2023-04-13T01:28:07.552Z,99313.91
2023-04-13T01:33:12.197Z,99313.97
2023-04-13T01:38:15.477Z,99310.63
2023-04-13T01:43:19.755Z,99310.59
2023-04-13T01:48:59.137Z,99307.16
2023-04-13T01:54:23.985Z,99301.19
2023-04-13T01:59:26.885Z,99304.66
2023-04-13T02:04:30.189Z,99303.97
2023-04-13T02:09:34.784Z,99316.03
2023-04-13T02:14:37.569Z,99287.84
2023-04-13T02:19:40.190Z,99311.88
2023-04-13T02:24:42.818Z,99313.59
2023-04-13T02:29:45.423Z,99312.84
2023-04-13T02:34:48.070Z,99328.19
2023-04-13T02:39:51.436Z,99317.75
2023-04-13T02:44:55.316Z,99326.31
2023-04-13T02:49:58.931Z,99326.13
2023-04-13T02:55:08.251Z,99320.88
2023-04-13T03:00:23.986Z,99324.19
2023-04-13T03:05:32.515Z,99294.13
2023-04-13T03:10:37.784Z,99313.72
2023-04-13T03:15:42.308Z,99316.28
2023-04-13T03:20:47.599Z,99337.31
2023-04-13T03:25:51.004Z,99343.13
2023-04-13T03:30:57.566Z,99338.72
2023-04-13T03:36:00.366Z,99328.97
2023-04-13T03:41:08.293Z,99339.34
2023-04-13T03:46:13.264Z,99334.94
2023-04-13T03:51:16.919Z,99344.06
2023-04-13T03:56:23.617Z,99337.84
2023-04-13T04:01:27.440Z,99345.53
2023-04-13T04:06:31.389Z,99342.78
2023-04-13T04:11:46.555Z,99332.31
2023-04-13T04:16:53.825Z,99348.31
2023-04-13T04:21:58.223Z,99346.28
2023-04-13T04:27:05.836Z,99354.03
2023-04-13T04:32:11.101Z,99343.25
2023-04-13T04:37:20.767Z,99296.72
2023-04-13T04:42:37.577Z,99351.13
2023-04-13T04:47:44.900Z,99321.13
2023-04-13T04:52:54.942Z,99346.53
2023-04-13T04:58:00.139Z,99351.53
2023-04-13T05:03:03.897Z,99330.16
2023-04-13T05:08:06.837Z,99310.25
2023-04-13T05:13:15.357Z,99341.06
2023-04-13T05:18:25.960Z,99318.53
2023-04-13T05:23:30.799Z,99313.69
2023-04-13T05:28:42.066Z,99328.97
2023-04-13T05:33:44.777Z,99330.22
2023-04-13T05:38:47.470Z,99322.59
2023-04-13T05:43:53.350Z,99286.16
2023-04-13T05:48:58.231Z,99319.34
2023-04-13T05:54:01.980Z,99325.94
2023-04-13T05:59:05.548Z,99333.94
2023-04-13T06:04:09.788Z,99326.03
2023-04-13T06:09:13.390Z,99314.50
2023-04-13T06:14:17.879Z,99320.16
2023-04-13T06:19:21.035Z,99313.94
2023-04-13T06:24:24.022Z,99311.28
2023-04-13T06:29:26.841Z,99316.66
2023-04-13T06:34:38.679Z,99317.41
2023-04-13T06:39:43.117Z,99317.81
2023-04-13T06:44:46.710Z,99312.69
2023-04-13T06:49:51.574Z,99331.00
2023-04-13T06:54:55.902Z,99329.44
2023-04-13T07:00:22.282Z,99332.84
2023-04-13T07:05:32.238Z,99335.72
2023-04-13T07:10:41.242Z,99315.91
2023-04-13T07:15:52.463Z,99325.84
2023-04-13T07:20:55.141Z,99315.28
2023-04-13T07:26:02.759Z,99343.22
2023-04-13T07:31:06.732Z,99335.66
2023-04-13T07:36:10.605Z,99321.25
2023-04-13T07:41:22.128Z,99328.53
2023-04-13T07:46:28.140Z,99325.00
2023-04-13T07:51:32.489Z,99333.81
2023-04-13T07:56:36.460Z,99322.44
2023-04-13T08:01:41.335Z,99319.13
2023-04-13T08:06:44.757Z,99311.72
2023-04-13T08:11:47.569Z,99324.16
2023-04-13T08:16:50.595Z,99295.88
2023-04-13T08:21:54.687Z,99289.16
2023-04-13T08:26:58.952Z,99301.38
2023-04-13T08:32:01.849Z,99313.09
2023-04-13T08:37:06.029Z,99300.47
2023-04-13T08:42:11.286Z,99303.63
2023-04-13T08:47:14.107Z,99294.50
2023-04-13T08:52:17.805Z,99287.22
2023-04-13T08:57:24.564Z,99291.19
2023-04-13T09:02:34.738Z,99285.16
2023-04-13T09:07:43.815Z,99309.38
2023-04-13T09:12:52.802Z,99297.13
2023-04-13T09:17:55.765Z,99283.34
2023-04-13T09:22:58.704Z,99293.66
2023-04-13T09:28:01.455Z,99286.84
2023-04-13T09:33:10.755Z,99299.75
2023-04-13T09:38:16.365Z,99293.94
2023-04-13T09:43:19.583Z,99284.00
2023-04-13T09:48:23.193Z,99308.72
2023-04-13T09:53:25.864Z,99297.50
2023-04-13T09:58:29.020Z,99294.06
2023-04-13T10:03:34.557Z,99283.53
2023-04-13T10:08:39.194Z,99262.47
2023-04-13T10:13:45.840Z,99279.88
2023-04-13T10:19:06.506Z,99228.41
2023-04-13T10:24:13.814Z,99252.03
2023-04-13T10:29:30.952Z,99281.91
2023-04-13T10:34:35.193Z,99258.09
2023-04-13T10:39:37.879Z,99263.81
2023-04-13T10:44:41.726Z,99248.56
2023-04-13T10:49:48.651Z,99280.56
2023-04-13T10:54:52.042Z,99262.22
2023-04-13T10:59:59.396Z,99253.59
2023-04-13T11:05:02.585Z,99262.50
2023-04-13T11:10:07.434Z,99267.75
2023-04-13T11:15:29.143Z,99265.75
2023-04-13T11:20:39.742Z,99262.41
2023-04-13T11:25:56.202Z,99268.75
2023-04-13T11:30:58.787Z,99267.72
2023-04-13T11:36:01.896Z,99257.28
2023-04-13T11:46:13.760Z,99255.34
2023-04-13T11:51:17.515Z,99248.63
2023-04-13T11:56:20.936Z,99268.25
2023-04-13T12:01:26.929Z,99261.13
2023-04-13T12:06:35.042Z,99248.41
2023-04-13T12:11:41.871Z,99260.38
2023-04-13T12:21:56.357Z,99232.13
2023-04-13T12:32:17.364Z,99247.09
2023-04-13T12:37:20.141Z,99260.91
2023-04-13T12:42:22.813Z,99255.34
2023-04-13T12:47:26.248Z,99244.94
2023-04-13T12:52:31.428Z,99246.47
2023-04-13T12:57:34.099Z,99234.84
2023-04-13T13:02:37.619Z,99263.16
2023-04-13T13:07:40.499Z,99224.75
2023-04-13T13:12:43.331Z,99226.47
2023-04-13T13:17:46.018Z,99250.50
2023-04-13T13:22:48.650Z,99236.06
2023-04-13T13:32:56.830Z,99257.44
2023-04-13T13:38:00.444Z,99241.56
2023-04-13T13:43:04.423Z,99248.31
2023-04-13T13:48:07.180Z,99258.53
2023-04-13T13:53:24.442Z,99217.44
2023-04-13T13:58:27.395Z,99242.75
2023-04-13T14:03:30.469Z,99250.78
2023-04-13T14:08:33.274Z,99255.16
2023-04-13T14:13:35.966Z,99309.06
2023-04-13T14:18:38.732Z,99274.22
2023-04-13T14:23:41.866Z,99280.47
2023-04-13T14:28:44.621Z,99235.03
2023-04-13T14:33:47.288Z,99237.81
2023-04-13T14:38:51.646Z,99247.06
2023-04-13T14:43:54.384Z,99270.09
2023-04-13T14:48:57.393Z,99280.09
2023-04-13T14:54:00.190Z,99278.09
2023-04-13T14:59:03.451Z,99276.13
2023-04-13T15:04:06.912Z,99297.00
2023-04-13T15:09:10.698Z,99276.47
2023-04-13T15:14:13.251Z,99290.75
2023-04-13T15:19:16.077Z,99280.25
2023-04-13T15:24:18.841Z,99325.97
2023-04-13T15:29:21.546Z,99348.41
2023-04-13T15:34:24.254Z,99343.72
2023-04-13T15:39:28.105Z,99316.97
2023-04-13T15:44:30.728Z,99349.66
2023-04-13T15:49:33.360Z,99328.03
2023-04-13T15:54:36.156Z,99326.44
2023-04-13T15:59:38.793Z,99341.75
2023-04-13T16:04:41.712Z,99371.66
2023-04-13T16:09:44.928Z,99352.25
2023-04-13T16:14:47.603Z,99378.78
2023-04-13T16:19:53.080Z,99350.13
2023-04-13T16:24:55.796Z,99374.94
2023-04-13T16:29:58.976Z,99378.66
2023-04-13T16:35:02.190Z,99437.25
2023-04-13T16:40:10.778Z,99410.25
2023-04-13T16:45:15.266Z,99411.63
2023-04-13T16:50:18.300Z,99417.94
2023-04-13T16:55:21.310Z,99405.19
2023-04-13T17:00:23.964Z,99426.63
2023-04-13T17:05:28.528Z,99443.31
2023-04-13T17:10:31.191Z,99457.50
2023-04-13T17:15:33.811Z,99445.91
2023-04-13T17:20:36.432Z,99470.25
2023-04-13T17:25:41.659Z,99481.72
2023-04-13T17:30:44.550Z,99477.47
2023-04-13T17:35:47.609Z,99477.69
2023-04-13T17:40:51.061Z,99478.56
2023-04-13T17:45:53.809Z,99482.44
2023-04-13T17:50:56.451Z,99490.41
2023-04-13T17:55:59.103Z,99504.19
2023-04-13T18:01:11.568Z,99520.84
2023-04-13T18:06:15.544Z,99508.16
2023-04-13T18:11:19.397Z,99516.78
2023-04-13T18:16:22.865Z,99557.66
2023-04-13T18:21:26.129Z,99552.00
2023-04-13T18:26:29.753Z,99524.41
2023-04-13T18:31:32.442Z,99524.53
2023-04-13T18:36:35.324Z,99519.50
2023-04-13T18:41:39.659Z,99530.78
2023-04-13T18:46:44.545Z,99554.31
2023-04-13T18:51:47.297Z,99550.84
2023-04-13T18:56:49.980Z,99529.47
2023-04-13T19:01:52.833Z,99528.09
2023-04-13T19:06:55.757Z,99500.03
2023-04-13T19:12:02.323Z,99558.50
2023-04-13T19:17:05.810Z,99542.19
2023-04-13T19:22:08.504Z,99540.63
2023-04-13T19:27:11.159Z,99546.78
2023-04-13T19:32:16.873Z,99554.63
2023-04-13T19:37:19.674Z,99569.50
2023-04-13T19:42:22.490Z,99578.19
2023-04-13T19:47:25.177Z,99568.81
2023-04-13T19:52:27.844Z,99592.94
2023-04-13T19:57:30.769Z,99580.91
2023-04-13T20:02:33.531Z,99591.34
2023-04-13T20:07:36.262Z,99589.66
2023-04-13T20:12:39.375Z,99544.22
2023-04-13T20:17:42.041Z,99564.06
2023-04-13T20:22:44.621Z,99590.69
2023-04-13T20:27:47.266Z,99628.56
2023-04-13T20:32:49.997Z,99644.06
2023-04-13T20:37:52.755Z,99598.50
2023-04-13T20:42:58.563Z,99611.47
2023-04-13T20:53:24.949Z,99605.47
2023-04-13T20:58:28.831Z,99624.41
2023-04-13T21:03:32.169Z,99630.41
2023-04-13T21:08:35.074Z,99659.66
2023-04-13T21:13:37.733Z,99633.00
2023-04-13T21:18:44.066Z,99646.72
2023-04-13T21:23:51.348Z,99616.66
2023-04-13T21:28:54.195Z,99630.38
2023-04-13T21:33:59.223Z,99627.81
2023-04-13T21:39:02.928Z,99632.94
2023-04-13T21:44:19.122Z,99635.44
2023-04-13T21:49:31.288Z,99639.75
2023-04-13T21:54:33.886Z,99652.56
2023-04-13T21:59:36.652Z,99654.22
2023-04-13T22:04:39.323Z,99667.03
2023-04-13T22:09:42.092Z,99677.31
2023-04-13T22:14:44.788Z,99658.41
2023-04-13T22:19:48.128Z,99673.75
2023-04-13T22:24:52.481Z,99659.13
2023-04-13T22:29:55.179Z,99634.25
2023-04-13T22:34:57.864Z,99655.66
2023-04-13T22:40:01.420Z,99671.91
2023-04-13T22:45:05.402Z,99669.22
2023-04-13T22:50:08.259Z,99653.66
2023-04-13T22:55:10.897Z,99661.31
2023-04-13T23:00:14.341Z,99688.59
2023-04-13T23:05:17.541Z,99667.94
2023-04-13T23:10:20.284Z,99671.28
2023-04-13T23:15:22.955Z,99661.75
2023-04-13T23:20:27.772Z,99673.69
2023-04-13T23:25:31.753Z,99657.31
2023-04-13T23:30:34.456Z,99694.91
2023-04-13T23:35:37.114Z,99686.19
2023-04-13T23:40:39.730Z,99690.22
2023-04-13T23:45:42.794Z,99695.16
2023-04-13T23:50:45.694Z,99719.72
2023-04-13T23:55:48.360Z,99704.22
